sensor_id;sensor_type;location;lat;lon;timestamp;pressure;altitude;pressure_sealevel;temperature;humidity
12624;BME280;6377;42.836;23.998;2024-03-02T00:13:51;95145.72;;;8.60;100.00
12624;BME280;6377;42.836;23.998;2024-03-02T02:57:39;95019.06;;;6.88;100.00
12624;BME280;6377;42.836;23.998;2024-03-02T04:41:33;95125.78;;;7.44;100.00
12624;BME280;6377;42.836;23.998;2024-03-02T04:44:00;95151.25;;;7.43;100.00
12624;BME280;6377;42.836;23.998;2024-03-02T04:46:28;95136.16;;;7.45;100.00
12624;BME280;6377;42.836;23.998;2024-03-02T04:48:55;94986.28;;;6.37;100.00
12624;BME280;6377;42.836;23.998;2024-03-02T04:51:22;95143.34;;;7.51;100.00
12624;BME280;6377;42.836;23.998;2024-03-02T04:53:49;95138.09;;;7.51;100.00
12624;BME280;6377;42.836;23.998;2024-03-02T04:56:17;95138.44;;;7.40;100.00
12624;BME280;6377;42.836;23.998;2024-03-02T04:59:06;95122.72;;;7.32;100.00
12624;BME280;6377;42.836;23.998;2024-03-02T05:01:33;95142.56;;;7.43;100.00
12624;BME280;6377;42.836;23.998;2024-03-02T05:04:00;95142.56;;;7.43;100.00
12624;BME280;6377;42.836;23.998;2024-03-02T05:06:27;95141.91;;;7.41;100.00
12624;BME280;6377;42.836;23.998;2024-03-02T05:08:55;95148.97;;;7.48;100.00
12624;BME280;6377;42.836;23.998;2024-03-02T05:11:22;95147.25;;;7.55;100.00
12624;BME280;6377;42.836;23.998;2024-03-02T05:14:15;95104.47;;;7.30;100.00
12624;BME280;6377;42.836;23.998;2024-03-02T05:16:43;95162.88;;;7.57;100.00
12624;BME280;6377;42.836;23.998;2024-03-02T05:19:15;95131.38;;;7.41;100.00
12624;BME280;6377;42.836;23.998;2024-03-02T05:21:42;94962.81;;;6.27;100.00
12624;BME280;6377;42.836;23.998;2024-03-02T05:24:09;95163.72;;;7.49;100.00
12624;BME280;6377;42.836;23.998;2024-03-02T05:26:37;94958.13;;;6.06;100.00
12624;BME280;6377;42.836;23.998;2024-03-02T05:29:04;95141.16;;;7.24;100.00
12624;BME280;6377;42.836;23.998;2024-03-02T05:31:33;94981.34;;;6.34;100.00
12624;BME280;6377;42.836;23.998;2024-03-02T05:34:00;95148.88;;;7.25;100.00
12624;BME280;6377;42.836;23.998;2024-03-02T05:36:28;95168.06;;;7.34;100.00
12624;BME280;6377;42.836;23.998;2024-03-02T05:38:55;95167.38;;;7.40;100.00
12624;BME280;6377;42.836;23.998;2024-03-02T05:41:22;95178.88;;;7.47;100.00
12624;BME280;6377;42.836;23.998;2024-03-02T05:43:49;95180.34;;;7.50;100.00
12624;BME280;6377;42.836;23.998;2024-03-02T05:46:16;95176.53;;;7.52;100.00
12624;BME280;6377;42.836;23.998;2024-03-02T05:48:45;95177.22;;;7.54;100.00
12624;BME280;6377;42.836;23.998;2024-03-02T05:51:12;95179.31;;;7.59;100.00
12624;BME280;6377;42.836;23.998;2024-03-02T05:53:39;95181.13;;;7.58;100.00
12624;BME280;6377;42.836;23.998;2024-03-02T05:56:06;95183.25;;;7.63;100.00
12624;BME280;6377;42.836;23.998;2024-03-02T05:58:33;95190.81;;;7.58;100.00
12624;BME280;6377;42.836;23.998;2024-03-02T06:01:15;95194.91;;;7.60;100.00
12624;BME280;6377;42.836;23.998;2024-03-02T06:03:44;95184.88;;;7.64;100.00
12624;BME280;6377;42.836;23.998;2024-03-02T06:06:11;95171.41;;;7.59;100.00
12624;BME280;6377;42.836;23.998;2024-03-02T06:08:38;95192.75;;;7.72;100.00
12624;BME280;6377;42.836;23.998;2024-03-02T06:11:06;95192.91;;;7.70;100.00
12624;BME280;6377;42.836;23.998;2024-03-02T06:13:33;95192.03;;;7.78;100.00
12624;BME280;6377;42.836;23.998;2024-03-02T06:16:00;95192.69;;;7.80;100.00
12624;BME280;6377;42.836;23.998;2024-03-02T06:18:30;95191.06;;;7.79;100.00
12624;BME280;6377;42.836;23.998;2024-03-02T06:20:58;95189.25;;;7.79;100.00
12624;BME280;6377;42.836;23.998;2024-03-02T06:23:26;95190.63;;;7.67;100.00
12624;BME280;6377;42.836;23.998;2024-03-02T06:25:53;95184.56;;;7.59;100.00
12624;BME280;6377;42.836;23.998;2024-03-02T06:28:20;95186.56;;;7.57;100.00
12624;BME280;6377;42.836;23.998;2024-03-02T06:30:47;95191.78;;;7.65;100.00
12624;BME280;6377;42.836;23.998;2024-03-02T06:33:14;95198.84;;;7.64;100.00
12624;BME280;6377;42.836;23.998;2024-03-02T06:35:42;95210.84;;;7.67;100.00
12624;BME280;6377;42.836;23.998;2024-03-02T06:38:11;95172.31;;;7.43;100.00
12624;BME280;6377;42.836;23.998;2024-03-02T06:40:39;95181.03;;;7.44;100.00
12624;BME280;6377;42.836;23.998;2024-03-02T06:43:06;95173.16;;;7.36;100.00
12624;BME280;6377;42.836;23.998;2024-03-02T06:45:33;95196.63;;;7.53;100.00
12624;BME280;6377;42.836;23.998;2024-03-02T06:48:00;95198.59;;;7.51;100.00
12624;BME280;6377;42.836;23.998;2024-03-02T06:50:27;95157.31;;;7.13;100.00
12624;BME280;6377;42.836;23.998;2024-03-02T06:52:55;95116.81;;;6.83;100.00
12624;BME280;6377;42.836;23.998;2024-03-02T06:55:24;95212.25;;;7.47;100.00
12624;BME280;6377;42.836;23.998;2024-03-02T07:26:47;95223.75;;;7.54;100.00
12624;BME280;6377;42.836;23.998;2024-03-02T07:29:14;95220.09;;;7.55;100.00
12624;BME280;6377;42.836;23.998;2024-03-02T07:31:41;95178.03;;;7.16;100.00
12624;BME280;6377;42.836;23.998;2024-03-02T07:34:08;95221.59;;;7.57;100.00
12624;BME280;6377;42.836;23.998;2024-03-02T07:44:25;95096.78;;;6.82;100.00
12624;BME280;6377;42.836;23.998;2024-03-02T07:46:53;95197.09;;;7.49;100.00
12624;BME280;6377;42.836;23.998;2024-03-02T07:49:20;95224.28;;;7.80;100.00
12624;BME280;6377;42.836;23.998;2024-03-02T07:59:34;95230.34;;;7.88;100.00
12624;BME280;6377;42.836;23.998;2024-03-02T08:04:57;95220.97;;;7.86;100.00
12624;BME280;6377;42.836;23.998;2024-03-02T08:07:24;95204.06;;;7.72;100.00
12624;BME280;6377;42.836;23.998;2024-03-02T08:09:51;95236.84;;;8.01;100.00
12624;BME280;6377;42.836;23.998;2024-03-02T08:12:18;95229.88;;;8.08;100.00
12624;BME280;6377;42.836;23.998;2024-03-02T08:14:48;95157.91;;;7.62;100.00
12624;BME280;6377;42.836;23.998;2024-03-02T08:17:15;95108.63;;;7.17;100.00
12624;BME280;6377;42.836;23.998;2024-03-02T08:19:43;95232.66;;;7.83;100.00
12624;BME280;6377;42.836;23.998;2024-03-02T08:22:11;95219.28;;;7.93;100.00
12624;BME280;6377;42.836;23.998;2024-03-02T08:24:38;95184.88;;;7.64;100.00
12624;BME280;6377;42.836;23.998;2024-03-02T08:27:05;95137.72;;;7.23;100.00
12624;BME280;6377;42.836;23.998;2024-03-02T08:29:32;95182.25;;;7.64;100.00
12624;BME280;6377;42.836;23.998;2024-03-02T08:32:01;95235.75;;;7.95;100.00
12624;BME280;6377;42.836;23.998;2024-03-02T08:34:28;95264.72;;;7.87;100.00
12624;BME280;6377;42.836;23.998;2024-03-02T09:10:26;95212.59;;;7.82;100.00
12624;BME280;6377;42.836;23.998;2024-03-02T09:12:54;95195.84;;;7.75;100.00
12624;BME280;6377;42.836;23.998;2024-03-02T09:15:21;95214.69;;;7.87;100.00
12624;BME280;6377;42.836;23.998;2024-03-02T09:17:48;95215.53;;;7.87;100.00
12624;BME280;6377;42.836;23.998;2024-03-02T09:20:15;95233.19;;;8.10;100.00
12624;BME280;6377;42.836;23.998;2024-03-02T09:22:42;95250.38;;;8.28;100.00
12624;BME280;6377;42.836;23.998;2024-03-02T09:25:09;95248.00;;;8.41;100.00
12624;BME280;6377;42.836;23.998;2024-03-02T09:27:38;95248.13;;;8.48;100.00
12624;BME280;6377;42.836;23.998;2024-03-02T09:30:08;95257.28;;;8.52;100.00
12624;BME280;6377;42.836;23.998;2024-03-02T09:32:35;95253.59;;;8.61;100.00
12624;BME280;6377;42.836;23.998;2024-03-02T09:35:02;95255.25;;;8.62;100.00
12624;BME280;6377;42.836;23.998;2024-03-02T09:37:29;95252.63;;;8.62;100.00
12624;BME280;6377;42.836;23.998;2024-03-02T09:39:56;95258.47;;;8.50;100.00
12624;BME280;6377;42.836;23.998;2024-03-02T09:42:24;95101.97;;;7.37;100.00
12624;BME280;6377;42.836;23.998;2024-03-02T09:44:53;95249.94;;;8.48;100.00
12624;BME280;6377;42.836;23.998;2024-03-02T09:47:20;95249.69;;;8.26;100.00
12624;BME280;6377;42.836;23.998;2024-03-02T09:49:48;95227.25;;;8.08;100.00
12624;BME280;6377;42.836;23.998;2024-03-02T09:52:16;95253.47;;;8.32;100.00
12624;BME280;6377;42.836;23.998;2024-03-02T09:54:43;95254.31;;;8.32;100.00
12624;BME280;6377;42.836;23.998;2024-03-02T09:57:10;95180.03;;;7.75;100.00
12624;BME280;6377;42.836;23.998;2024-03-02T09:59:37;95231.25;;;7.96;100.00
12624;BME280;6377;42.836;23.998;2024-03-02T10:02:05;95222.44;;;7.88;100.00
12624;BME280;6377;42.836;23.998;2024-03-02T10:04:33;95250.69;;;8.33;100.00
12624;BME280;6377;42.836;23.998;2024-03-02T10:07:14;95235.38;;;8.29;100.00
12624;BME280;6377;42.836;23.998;2024-03-02T10:09:42;95258.19;;;8.44;100.00
12624;BME280;6377;42.836;23.998;2024-03-02T10:12:11;95257.16;;;8.45;100.00
12624;BME280;6377;42.836;23.998;2024-03-02T10:14:38;95258.19;;;8.44;100.00
12624;BME280;6377;42.836;23.998;2024-03-02T10:17:08;95230.75;;;8.31;100.00
12624;BME280;6377;42.836;23.998;2024-03-02T10:19:36;95238.44;;;8.40;100.00
12624;BME280;6377;42.836;23.998;2024-03-02T10:22:05;95242.59;;;8.58;100.00
12624;BME280;6377;42.836;23.998;2024-03-02T10:24:37;95226.34;;;8.54;100.00
12624;BME280;6377;42.836;23.998;2024-03-02T10:27:09;95251.44;;;8.65;100.00
12624;BME280;6377;42.836;23.998;2024-03-02T10:29:38;95224.75;;;8.45;100.00
12624;BME280;6377;42.836;23.998;2024-03-02T10:32:09;95245.19;;;8.66;100.00
12624;BME280;6377;42.836;23.998;2024-03-02T10:34:37;95242.13;;;8.77;100.00
12624;BME280;6377;42.836;23.998;2024-03-02T10:37:05;95244.13;;;8.89;100.00
12624;BME280;6377;42.836;23.998;2024-03-02T10:39:34;95223.97;;;8.96;100.00
12624;BME280;6377;42.836;23.998;2024-03-02T10:42:02;95168.19;;;8.70;100.00
12624;BME280;6377;42.836;23.998;2024-03-02T10:44:30;95098.03;;;8.09;100.00
12624;BME280;6377;42.836;23.998;2024-03-02T10:47:00;95120.06;;;8.39;100.00
12624;BME280;6377;42.836;23.998;2024-03-02T10:49:31;95156.81;;;8.70;100.00
12624;BME280;6377;42.836;23.998;2024-03-02T10:51:58;95150.69;;;8.55;100.00
12624;BME280;6377;42.836;23.998;2024-03-02T10:54:26;95152.34;;;8.56;100.00
12624;BME280;6377;42.836;23.998;2024-03-02T10:56:58;95139.47;;;8.38;100.00
12624;BME280;6377;42.836;23.998;2024-03-02T10:59:33;95221.34;;;9.11;100.00
12624;BME280;6377;42.836;23.998;2024-03-02T11:02:02;95092.13;;;8.30;100.00
12624;BME280;6377;42.836;23.998;2024-03-02T11:04:31;95045.88;;;8.05;100.00
12624;BME280;6377;42.836;23.998;2024-03-02T11:07:00;95248.56;;;9.12;100.00
12624;BME280;6377;42.836;23.998;2024-03-02T11:09:29;95050.78;;;8.08;100.00
12624;BME280;6377;42.836;23.998;2024-03-02T11:12:02;95191.94;;;8.85;100.00
12624;BME280;6377;42.836;23.998;2024-03-02T11:14:31;95111.56;;;8.29;100.00
12624;BME280;6377;42.836;23.998;2024-03-02T11:17:00;95188.59;;;8.91;100.00
12624;BME280;6377;42.836;23.998;2024-03-02T11:19:31;95219.72;;;9.10;100.00
12624;BME280;6377;42.836;23.998;2024-03-02T11:21:59;95221.09;;;9.21;100.00
12624;BME280;6377;42.836;23.998;2024-03-02T11:24:31;95214.66;;;9.38;100.00
12624;BME280;6377;42.836;23.998;2024-03-02T11:26:59;95222.94;;;9.49;100.00
12624;BME280;6377;42.836;23.998;2024-03-02T11:29:45;95225.56;;;9.49;100.00
12624;BME280;6377;42.836;23.998;2024-03-02T11:32:17;95221.75;;;9.52;100.00
12624;BME280;6377;42.836;23.998;2024-03-02T11:34:48;95224.09;;;9.62;100.00
12624;BME280;6377;42.836;23.998;2024-03-02T11:37:17;95210.91;;;9.62;100.00
12624;BME280;6377;42.836;23.998;2024-03-02T11:39:45;95221.38;;;9.70;100.00
12624;BME280;6377;42.836;23.998;2024-03-02T11:42:12;95228.38;;;9.77;100.00
12624;BME280;6377;42.836;23.998;2024-03-02T11:44:42;95223.34;;;9.82;100.00
12624;BME280;6377;42.836;23.998;2024-03-02T11:47:11;95231.03;;;9.77;100.00
12624;BME280;6377;42.836;23.998;2024-03-02T11:49:42;95226.91;;;9.75;100.00
12624;BME280;6377;42.836;23.998;2024-03-02T11:52:13;95226.53;;;9.78;100.00
12624;BME280;6377;42.836;23.998;2024-03-02T11:54:41;95195.31;;;9.67;100.00
12624;BME280;6377;42.836;23.998;2024-03-02T11:57:13;95220.06;;;9.95;100.00
12624;BME280;6377;42.836;23.998;2024-03-02T11:59:40;95218.56;;;10.07;100.00
12624;BME280;6377;42.836;23.998;2024-03-02T12:02:14;95218.31;;;10.17;100.00
12624;BME280;6377;42.836;23.998;2024-03-02T12:04:42;95217.38;;;10.24;100.00
12624;BME280;6377;42.836;23.998;2024-03-02T12:07:12;95232.75;;;10.35;100.00
12624;BME280;6377;42.836;23.998;2024-03-02T12:09:40;95226.78;;;10.48;100.00
12624;BME280;6377;42.836;23.998;2024-03-02T12:12:08;95216.75;;;10.43;100.00
12624;BME280;6377;42.836;23.998;2024-03-02T12:14:36;95194.53;;;10.38;100.00
12624;BME280;6377;42.836;23.998;2024-03-02T12:17:04;95216.81;;;10.50;100.00
12624;BME280;6377;42.836;23.998;2024-03-02T12:19:33;95218.72;;;10.56;100.00
12624;BME280;6377;42.836;23.998;2024-03-02T12:22:00;95219.56;;;10.63;100.00
12624;BME280;6377;42.836;23.998;2024-03-02T12:24:30;95224.00;;;10.56;100.00
12624;BME280;6377;42.836;23.998;2024-03-02T12:26:58;95225.25;;;10.60;100.00
12624;BME280;6377;42.836;23.998;2024-03-02T12:29:26;95215.94;;;10.64;100.00
12624;BME280;6377;42.836;23.998;2024-03-02T12:31:53;95218.34;;;10.59;100.00
12624;BME280;6377;42.836;23.998;2024-03-02T12:34:21;95212.16;;;10.73;100.00
12624;BME280;6377;42.836;23.998;2024-03-02T12:36:49;95170.50;;;10.33;100.00
12624;BME280;6377;42.836;23.998;2024-03-02T12:39:18;95206.34;;;10.63;100.00
12624;BME280;6377;42.836;23.998;2024-03-02T12:41:50;95221.97;;;10.58;100.00
12624;BME280;6377;42.836;23.998;2024-03-02T12:44:19;95222.88;;;10.65;100.00
12624;BME280;6377;42.836;23.998;2024-03-02T12:46:47;95216.94;;;10.63;100.00
12624;BME280;6377;42.836;23.998;2024-03-02T12:49:15;95219.09;;;10.74;100.00
12624;BME280;6377;42.836;23.998;2024-03-02T12:51:43;95188.28;;;10.45;100.00
12624;BME280;6377;42.836;23.998;2024-03-02T12:54:18;95221.47;;;10.69;100.00
12624;BME280;6377;42.836;23.998;2024-03-02T12:56:45;95234.13;;;10.74;100.00
12624;BME280;6377;42.836;23.998;2024-03-02T12:59:21;95233.31;;;10.73;100.00
12624;BME280;6377;42.836;23.998;2024-03-02T13:01:52;95205.63;;;10.48;100.00
12624;BME280;6377;42.836;23.998;2024-03-02T13:04:24;95210.13;;;10.54;100.00
12624;BME280;6377;42.836;23.998;2024-03-02T13:06:52;95227.47;;;10.56;100.00
12624;BME280;6377;42.836;23.998;2024-03-02T13:09:23;95235.13;;;10.51;100.00
12624;BME280;6377;42.836;23.998;2024-03-02T13:11:56;95120.59;;;9.87;100.00
12624;BME280;6377;42.836;23.998;2024-03-02T13:14:38;95124.50;;;9.70;100.00
12624;BME280;6377;42.836;23.998;2024-03-02T13:17:09;95210.81;;;10.20;100.00
12624;BME280;6377;42.836;23.998;2024-03-02T13:19:37;95163.53;;;10.10;100.00
12624;BME280;6377;42.836;23.998;2024-03-02T13:22:05;95078.28;;;9.60;100.00
12624;BME280;6377;42.836;23.998;2024-03-02T13:24:35;95067.84;;;9.37;100.00
12624;BME280;6377;42.836;23.998;2024-03-02T13:27:08;95054.44;;;9.17;100.00
12624;BME280;6377;42.836;23.998;2024-03-02T13:29:38;95071.53;;;9.21;100.00
12624;BME280;6377;42.836;23.998;2024-03-02T13:32:06;95138.63;;;9.63;100.00
12624;BME280;6377;42.836;23.998;2024-03-02T13:34:35;95094.81;;;9.18;100.00
12624;BME280;6377;42.836;23.998;2024-03-02T13:37:03;95111.63;;;9.31;100.00
12624;BME280;6377;42.836;23.998;2024-03-02T13:39:32;95250.78;;;10.32;100.00
12624;BME280;6377;42.836;23.998;2024-03-02T13:42:05;95254.75;;;10.21;100.00
12624;BME280;6377;42.836;23.998;2024-03-02T13:44:34;95261.84;;;10.21;100.00
12624;BME280;6377;42.836;23.998;2024-03-02T13:47:04;95270.88;;;10.26;100.00
12624;BME280;6377;42.836;23.998;2024-03-02T13:49:31;95273.06;;;10.23;100.00
12624;BME280;6377;42.836;23.998;2024-03-02T13:52:03;95278.44;;;10.00;100.00
12624;BME280;6377;42.836;23.998;2024-03-02T13:54:39;95277.28;;;9.88;100.00
12624;BME280;6377;42.836;23.998;2024-03-02T13:57:08;95285.81;;;9.61;100.00
12624;BME280;6377;42.836;23.998;2024-03-02T13:59:36;95245.75;;;9.28;100.00
12624;BME280;6377;42.836;23.998;2024-03-02T14:02:05;95257.34;;;9.41;100.00
12624;BME280;6377;42.836;23.998;2024-03-02T14:04:33;95248.31;;;9.21;100.00
12624;BME280;6377;42.836;23.998;2024-03-02T14:07:01;95271.69;;;9.24;100.00
12624;BME280;6377;42.836;23.998;2024-03-02T14:09:29;95261.66;;;9.05;100.00
12624;BME280;6377;42.836;23.998;2024-03-02T14:11:56;95278.25;;;9.28;100.00
12624;BME280;6377;42.836;23.998;2024-03-02T14:14:26;95270.06;;;9.23;100.00
12624;BME280;6377;42.836;23.998;2024-03-02T14:16:54;95267.63;;;9.36;100.00
12624;BME280;6377;42.836;23.998;2024-03-02T14:19:27;95247.75;;;9.26;100.00
12624;BME280;6377;42.836;23.998;2024-03-02T14:21:54;95271.06;;;9.37;100.00
12624;BME280;6377;42.836;23.998;2024-03-02T14:24:22;95282.34;;;9.45;100.00
12624;BME280;6377;42.836;23.998;2024-03-02T14:26:51;95290.94;;;9.47;100.00
12624;BME280;6377;42.836;23.998;2024-03-02T14:29:18;95282.28;;;9.53;100.00
12624;BME280;6377;42.836;23.998;2024-03-02T14:31:46;95283.47;;;9.51;100.00
12624;BME280;6377;42.836;23.998;2024-03-02T14:34:14;95284.28;;;9.51;100.00
12624;BME280;6377;42.836;23.998;2024-03-02T14:36:43;95285.91;;;9.52;100.00
12624;BME280;6377;42.836;23.998;2024-03-02T14:39:10;95241.13;;;9.15;100.00
12624;BME280;6377;42.836;23.998;2024-03-02T14:41:38;95279.19;;;9.50;100.00
12624;BME280;6377;42.836;23.998;2024-03-02T14:44:05;95284.47;;;9.65;100.00
12624;BME280;6377;42.836;23.998;2024-03-02T14:46:32;95283.91;;;9.69;100.00
12624;BME280;6377;42.836;23.998;2024-03-02T14:49:02;95288.19;;;9.70;100.00
12624;BME280;6377;42.836;23.998;2024-03-02T14:51:30;95284.22;;;9.74;100.00
12624;BME280;6377;42.836;23.998;2024-03-02T14:53:59;95292.75;;;9.76;100.00
12624;BME280;6377;42.836;23.998;2024-03-02T14:56:26;95296.03;;;9.78;100.00
12624;BME280;6377;42.836;23.998;2024-03-02T14:58:54;95282.00;;;9.63;100.00
12624;BME280;6377;42.836;23.998;2024-03-02T15:01:21;95251.41;;;9.39;100.00
12624;BME280;6377;42.836;23.998;2024-03-02T15:03:50;95299.94;;;9.68;100.00
12624;BME280;6377;42.836;23.998;2024-03-02T15:06:17;95299.13;;;9.67;100.00
12624;BME280;6377;42.836;23.998;2024-03-02T15:08:44;95301.88;;;9.74;100.00
12624;BME280;6377;42.836;23.998;2024-03-02T15:11:14;95305.75;;;9.48;100.00
12624;BME280;6377;42.836;23.998;2024-03-02T15:13:41;95304.94;;;9.33;100.00
12624;BME280;6377;42.836;23.998;2024-03-02T15:16:09;95309.38;;;9.33;100.00
12624;BME280;6377;42.836;23.998;2024-03-02T15:18:36;95307.72;;;9.32;100.00
12624;BME280;6377;42.836;23.998;2024-03-02T15:21:03;95312.03;;;9.33;100.00
12624;BME280;6377;42.836;23.998;2024-03-02T15:23:31;95304.72;;;9.20;100.00
12624;BME280;6377;42.836;23.998;2024-03-02T15:25:58;95308.44;;;9.26;100.00
12624;BME280;6377;42.836;23.998;2024-03-02T15:28:26;95278.94;;;9.08;100.00
12624;BME280;6377;42.836;23.998;2024-03-02T15:30:53;95293.81;;;9.23;100.00
12624;BME280;6377;42.836;23.998;2024-03-02T15:33:20;95316.22;;;9.42;100.00
12624;BME280;6377;42.836;23.998;2024-03-02T15:35:50;95313.75;;;9.40;100.00
12624;BME280;6377;42.836;23.998;2024-03-02T15:38:18;95316.50;;;9.47;100.00
12624;BME280;6377;42.836;23.998;2024-03-02T15:40:45;95320.78;;;9.48;100.00
12624;BME280;6377;42.836;23.998;2024-03-02T15:43:12;95316.78;;;9.52;100.00
12624;BME280;6377;42.836;23.998;2024-03-02T15:45:40;95321.53;;;9.56;100.00
12624;BME280;6377;42.836;23.998;2024-03-02T15:48:08;95323.06;;;9.51;100.00
12624;BME280;6377;42.836;23.998;2024-03-02T15:50:35;95321.22;;;9.51;100.00
12624;BME280;6377;42.836;23.998;2024-03-02T15:53:03;95331.16;;;9.49;100.00
12624;BME280;6377;42.836;23.998;2024-03-02T15:55:32;95327.78;;;9.41;100.00
12624;BME280;6377;42.836;23.998;2024-03-02T15:58:00;95336.25;;;9.36;100.00
12624;BME280;6377;42.836;23.998;2024-03-02T16:00:29;95333.38;;;9.23;100.00
12624;BME280;6377;42.836;23.998;2024-03-02T16:02:58;95321.84;;;9.01;100.00
12624;BME280;6377;42.836;23.998;2024-03-02T16:05:25;95334.25;;;9.01;100.00
12624;BME280;6377;42.836;23.998;2024-03-02T16:07:52;95338.97;;;9.06;100.00
12624;BME280;6377;42.836;23.998;2024-03-02T16:10:19;95342.50;;;8.98;100.00
12624;BME280;6377;42.836;23.998;2024-03-02T16:12:46;95344.88;;;8.85;100.00
12624;BME280;6377;42.836;23.998;2024-03-02T16:15:14;95338.66;;;8.78;100.00
12624;BME280;6377;42.836;23.998;2024-03-02T16:17:41;95341.91;;;8.65;100.00
12624;BME280;6377;42.836;23.998;2024-03-02T16:20:11;95350.78;;;8.64;100.00
12624;BME280;6377;42.836;23.998;2024-03-02T16:22:43;95356.75;;;8.58;100.00
12624;BME280;6377;42.836;23.998;2024-03-02T16:25:10;95339.88;;;8.44;100.00
12624;BME280;6377;42.836;23.998;2024-03-02T16:27:38;95349.06;;;8.49;100.00
12624;BME280;6377;42.836;23.998;2024-03-02T16:30:06;95350.41;;;8.44;100.00
12624;BME280;6377;42.836;23.998;2024-03-02T16:32:34;95351.66;;;8.57;100.00
12624;BME280;6377;42.836;23.998;2024-03-02T16:35:01;95354.75;;;8.60;100.00
12624;BME280;6377;42.836;23.998;2024-03-02T16:37:30;95212.69;;;7.58;100.00
12624;BME280;6377;42.836;23.998;2024-03-02T16:39:58;95297.47;;;8.23;100.00
12624;BME280;6377;42.836;23.998;2024-03-02T16:42:28;95317.72;;;8.23;100.00
12624;BME280;6377;42.836;23.998;2024-03-02T16:44:55;95256.19;;;7.85;100.00
12624;BME280;6377;42.836;23.998;2024-03-02T16:47:22;95332.94;;;8.05;100.00
12624;BME280;6377;42.836;23.998;2024-03-02T16:49:51;95359.50;;;8.34;100.00
12624;BME280;6377;42.836;23.998;2024-03-02T16:52:18;95309.22;;;8.13;100.00
12624;BME280;6377;42.836;23.998;2024-03-02T16:54:50;95244.91;;;7.68;100.00
12624;BME280;6377;42.836;23.998;2024-03-02T16:57:18;95324.53;;;8.09;100.00
12624;BME280;6377;42.836;23.998;2024-03-02T16:59:45;95385.72;;;8.35;100.00
12624;BME280;6377;42.836;23.998;2024-03-02T17:02:13;95383.66;;;8.45;100.00
12624;BME280;6377;42.836;23.998;2024-03-02T17:04:40;95289.53;;;7.54;100.00
12624;BME280;6377;42.836;23.998;2024-03-02T17:07:07;95267.94;;;7.66;100.00
12624;BME280;6377;42.836;23.998;2024-03-02T17:09:36;95279.97;;;7.69;100.00
12624;BME280;6377;42.836;23.998;2024-03-02T17:12:05;95386.16;;;8.47;100.00
12624;BME280;6377;42.836;23.998;2024-03-02T17:14:32;95406.88;;;8.50;100.00
12624;BME280;6377;42.836;23.998;2024-03-02T17:16:59;95382.97;;;8.52;100.00
12624;BME280;6377;42.836;23.998;2024-03-02T17:19:26;95356.78;;;8.27;100.00
12624;BME280;6377;42.836;23.998;2024-03-02T17:21:54;95393.06;;;8.48;100.00
12624;BME280;6377;42.836;23.998;2024-03-02T17:24:21;95400.31;;;8.46;100.00
12624;BME280;6377;42.836;23.998;2024-03-02T17:26:48;95354.94;;;8.20;100.00
12624;BME280;6377;42.836;23.998;2024-03-02T17:29:17;95253.53;;;7.54;100.00
12624;BME280;6377;42.836;23.998;2024-03-02T17:31:44;95312.44;;;7.84;100.00
12624;BME280;6377;42.836;23.998;2024-03-02T17:34:11;95395.81;;;8.55;100.00
12624;BME280;6377;42.836;23.998;2024-03-02T17:36:39;95395.19;;;8.53;100.00
12624;BME280;6377;42.836;23.998;2024-03-02T17:39:06;95374.50;;;8.25;100.00
12624;BME280;6377;42.836;23.998;2024-03-02T17:41:34;95394.28;;;8.60;100.00
12624;BME280;6377;42.836;23.998;2024-03-02T17:44:02;95352.13;;;8.29;100.00
12624;BME280;6377;42.836;23.998;2024-03-02T17:46:30;95338.75;;;8.39;100.00
12624;BME280;6377;42.836;23.998;2024-03-02T17:48:58;95290.13;;;8.11;100.00
12624;BME280;6377;42.836;23.998;2024-03-02T17:51:25;95368.19;;;8.51;100.00
12624;BME280;6377;42.836;23.998;2024-03-02T17:53:52;95355.91;;;8.66;100.00
12624;BME280;6377;42.836;23.998;2024-03-02T17:56:20;95252.19;;;7.97;100.00
12624;BME280;6377;42.836;23.998;2024-03-02T17:58:47;95317.75;;;8.54;100.00
12624;BME280;6377;42.836;23.998;2024-03-02T18:01:15;95355.81;;;8.51;100.00
12624;BME280;6377;42.836;23.998;2024-03-02T18:03:44;95292.44;;;8.44;100.00
12624;BME280;6377;42.836;23.998;2024-03-02T18:06:13;95270.94;;;8.25;100.00
12624;BME280;6377;42.836;23.998;2024-03-02T18:08:40;95391.13;;;8.95;100.00
12624;BME280;6377;42.836;23.998;2024-03-02T18:11:08;95237.00;;;8.07;100.00
12624;BME280;6377;42.836;23.998;2024-03-02T18:13:35;95240.41;;;8.16;100.00
12624;BME280;6377;42.836;23.998;2024-03-02T18:16:02;95233.25;;;7.94;100.00
12624;BME280;6377;42.836;23.998;2024-03-02T18:18:30;95338.16;;;8.60;100.00
12624;BME280;6377;42.836;23.998;2024-03-02T18:20:59;95246.19;;;7.80;100.00
12624;BME280;6377;42.836;23.998;2024-03-02T18:23:27;95214.00;;;7.62;100.00
12624;BME280;6377;42.836;23.998;2024-03-02T18:25:55;95291.19;;;7.94;100.00
12624;BME280;6377;42.836;23.998;2024-03-02T18:28:22;95236.22;;;7.52;100.00
12624;BME280;6377;42.836;23.998;2024-03-02T18:30:49;95401.00;;;8.40;100.00
12624;BME280;6377;42.836;23.998;2024-03-02T18:33:20;95394.94;;;8.39;100.00
12624;BME280;6377;42.836;23.998;2024-03-02T18:35:47;95397.72;;;8.38;100.00
12624;BME280;6377;42.836;23.998;2024-03-02T18:38:15;95399.81;;;8.42;100.00
12624;BME280;6377;42.836;23.998;2024-03-02T18:40:43;95406.75;;;8.43;100.00
12624;BME280;6377;42.836;23.998;2024-03-02T18:43:13;95405.56;;;8.46;100.00
12624;BME280;6377;42.836;23.998;2024-03-02T18:45:40;95406.75;;;8.43;100.00
12624;BME280;6377;42.836;23.998;2024-03-02T18:48:07;95357.63;;;8.12;100.00
12624;BME280;6377;42.836;23.998;2024-03-02T18:50:34;95406.94;;;8.42;100.00
12624;BME280;6377;42.836;23.998;2024-03-02T18:53:02;95400.53;;;8.36;100.00
12624;BME280;6377;42.836;23.998;2024-03-02T18:55:30;95408.25;;;8.38;100.00
12624;BME280;6377;42.836;23.998;2024-03-02T18:57:57;95405.47;;;8.39;100.00
12624;BME280;6377;42.836;23.998;2024-03-02T19:00:27;95407.44;;;8.37;100.00
12624;BME280;6377;42.836;23.998;2024-03-02T19:02:55;95311.81;;;7.82;100.00